Sunday, April 22, 2018, 5:39 PM EDT
Back to Local

KGNR, Greenville

Location: Greenville, ME, United States Lat: 45.467
Local Time: 5:39 PM EDT (21:39 GMT) Lon: -69.583
Time Zone: US/Eastern Elev: 1400 ft

Show me the last for .
Show Decoded

2018-04-22 16:56 METAR KGNR 222056Z AUTO 32011KT 08/M10 A3023 RMK AO1 SLP253 T00831100 53000 =
2018-04-22 15:56 METAR KGNR 221956Z AUTO 31013G21KT 08/M09 A3023 RMK AO1 SLP252 T00831094 =
2018-04-22 14:56 METAR KGNR 221856Z AUTO 31011KT 08/M09 A3023 RMK AO1 SLP252 T00831094 =
2018-04-22 13:56 METAR KGNR 221756Z AUTO 32012G19KT 08/M08 A3023 RMK AO1 SLP252 T00781083 10078
                 20006 55000 =
2018-04-22 12:56 METAR KGNR 221656Z AUTO 34012G17KT 07/M09 A3023 RMK AO1 SLP251 T00671089 =
2018-04-22 11:56 METAR KGNR 221556Z AUTO 34015G20KT 06/M09 A3023 RMK AO1 SLP254 T00561094 =
2018-04-22 10:56 METAR KGNR 221456Z AUTO 34009G17KT 05/M08 A3023 RMK AO1 SLP252 T00501083 50002 =
2018-04-22 09:56 METAR KGNR 221356Z AUTO 35014G18KT 03/M09 A3024 RMK AO1 SLP255 T00331094 =
2018-04-22 08:56 METAR KGNR 221256Z AUTO 32016KT 02/M08 A3023 RMK AO1 SLP255 T00221083 =
2018-04-22 07:56 METAR KGNR 221156Z AUTO 33009KT 01/M07 A3023 RMK AO1 SLP253 T00061072 10006
                 21017 51013 =
2018-04-22 06:56 METAR KGNR 221056Z AUTO 33010KT M01/M08 A3022 RMK AO1 SLP250 T10061078 =
2018-04-22 05:56 METAR KGNR 220956Z AUTO 32006KT M02/M08 A3020 RMK AO1 SLP244 T10171078 =
2018-04-22 04:56 METAR KGNR 220856Z AUTO 31008KT M01/M08 A3019 RMK AO1 SLP238 T10111078 51005 =
2018-04-22 03:56 METAR KGNR 220756Z AUTO 32008KT M01/M07 A3018 RMK AO1 SLP236 T10061072 =
2018-04-22 02:56 METAR KGNR 220656Z AUTO 33009KT M01/M07 A3018 RMK AO1 SLP236 T10061067 =
2018-04-22 01:56 METAR KGNR 220556Z AUTO 33008KT 00/M07 A3017 RMK AO1 SLP232 T00001067 10028
                 20000 50002 =
2018-04-22 00:56 METAR KGNR 220456Z AUTO 33008KT 01/M06 A3018 RMK AO1 SLP234 T00061061 400721006
                 =
2018-04-21 23:56 METAR KGNR 220356Z AUTO 32008KT 01/M06 A3017 RMK AO1 SLP234 T00111061 =
2018-04-21 22:56 METAR KGNR 220256Z AUTO 33007KT 02/M06 A3017 RMK AO1 SLP231 T00221056 51005 =
2018-04-21 21:56 METAR KGNR 220156Z AUTO 31007KT 02/M06 A3016 RMK AO1 SLP230 T00171056 =
2018-04-21 20:56 METAR KGNR 220056Z AUTO 32008KT 02/M05 A3016 RMK AO1 SLP229 T00171050 =
2018-04-21 19:56 METAR KGNR 212356Z AUTO 31006KT 03/M05 A3015 RMK AO1 SLP226 T00281050 10072
                 20028 53015 =
2018-04-21 18:56 METAR KGNR 212256Z AUTO 32011G17KT 04/M05 A3013 RMK AO1 PK WND 33029/2204 SLP218
                 T00391050 =
2018-04-21 17:56 METAR KGNR 212156Z AUTO 32014G22KT 06/M06 A3011 RMK AO1 SLP212 T00561061 =

Support USWX by starting your Amazon purchase here.